Time;durP1;ratioP1;P1;durP2;ratioP2;P2;SDS_P1;SDS_P2;PMS_P1;PMS_P2;Temp;Humidity;BMP_temperature;BMP_pressure;BME280_temperature;BME280_humidity;BME280_pressure;Samples;Min_cycle;Max_cycle;Signal;HPM_P1;HPM_P2
2021/12/08 00:00:11;;;;;;;;;;;;;;;22.99;2.16;100858.13;5074365;28;19956;-68
2021/12/08 00:02:36;;;;;;;;;;;;;;;22.96;2.21;100862.22;5074068;28;19939;-68
2021/12/08 00:05:01;;;;;;;;;;;;;;;22.98;2.02;100857.31;5074315;28;20315;-69
2021/12/08 00:07:27;;;;;;;;;;;;;;;22.95;2.16;100852.38;5074194;28;20282;-68
2021/12/08 00:15:20;;;;;;;;;;;;;;;22.96;2.15;100872.28;5074126;28;19923;-68
2021/12/08 00:17:45;;;;;;;;;;;;;;;22.95;2.21;100873.38;5073952;28;20018;-68
2021/12/08 00:20:10;;;;;;;;;;;;;;;22.93;2.20;100870.91;5074250;28;19971;-68
2021/12/08 00:22:36;;;;;;;;;;;;;;;22.92;2.22;100877.44;5082976;28;19927;-68
2021/12/08 00:25:01;;;;;;;;;;;;;;;22.91;2.18;100875.78;5094389;28;19916;-68
2021/12/08 00:27:26;;;;;;;;;;;;;;;22.90;2.28;100885.03;5094148;28;19916;-68
2021/12/08 00:29:51;;;;;;;;;;;;;;;22.91;2.16;100886.69;5094210;28;19916;-68
2021/12/08 00:32:20;;;;;;;;;;;;;;;22.91;2.31;100875.78;5094377;28;19916;-68
2021/12/08 00:34:45;;;;;;;;;;;;;;;22.90;2.21;100879.59;5094322;28;19966;-68
2021/12/08 00:37:11;;;;;;;;;;;;;;;22.91;2.24;100886.69;5093967;28;19916;-68
2021/12/08 00:39:37;;;;;;;;;;;;;;;22.89;2.21;100877.97;5098621;28;19923;-68
2021/12/08 00:42:02;;;;;;;;;;;;;;;22.88;2.10;100881.75;5097910;28;20003;-68
2021/12/08 00:44:27;;;;;;;;;;;;;;;22.88;2.25;100889.91;5098264;28;19916;-68
2021/12/08 00:46:52;;;;;;;;;;;;;;;22.91;2.28;100881.25;5080382;28;20324;-68
2021/12/08 00:49:18;;;;;;;;;;;;;;;22.94;2.28;100888.91;5098691;28;19917;-69
2021/12/08 00:51:43;;;;;;;;;;;;;;;22.91;2.18;100874.97;5098218;28;19916;-69
2021/12/08 00:54:08;;;;;;;;;;;;;;;22.89;2.24;100888.84;5097875;28;19924;-69
2021/12/08 00:56:33;;;;;;;;;;;;;;;22.90;2.37;100885.03;5097944;28;19916;-68
2021/12/08 00:58:59;;;;;;;;;;;;;;;22.90;2.37;100885.03;5098541;28;20018;-68
2021/12/08 01:01:24;;;;;;;;;;;;;;;22.90;2.48;100892.41;5079644;28;20354;-69
2021/12/08 01:03:50;;;;;;;;;;;;;;;22.91;2.35;100883.97;5097887;28;20281;-69
2021/12/08 01:06:16;;;;;;;;;;;;;;;22.87;2.44;100880.94;5097870;28;20023;-69
2021/12/08 01:08:41;;;;;;;;;;;;;;;22.87;2.42;100880.13;5097836;28;19916;-69
2021/12/08 01:11:08;;;;;;;;;;;;;;;22.90;2.41;100885.03;5097680;28;19923;-69
2021/12/08 01:13:33;;;;;;;;;;;;;;;22.90;2.30;100890.47;5097517;28;19966;-69
2021/12/08 01:15:59;;;;;;;;;;;;;;;22.88;2.41;100888.00;5097289;28;19993;-69
2021/12/08 01:18:24;;;;;;;;;;;;;;;22.90;2.42;100879.59;5097290;28;19927;-68
2021/12/08 01:20:50;;;;;;;;;;;;;;;22.89;2.25;100883.41;5097183;28;19924;-69
2021/12/08 01:23:15;;;;;;;;;;;;;;;22.90;2.24;100870.59;5083452;28;19921;-69
2021/12/08 01:25:40;;;;;;;;;;;;;;;22.87;2.47;100880.13;5077253;28;19917;-69
2021/12/08 01:28:05;;;;;;;;;;;;;;;22.87;2.32;100871.94;5076708;28;19986;-69
2021/12/08 01:30:31;;;;;;;;;;;;;;;22.86;2.23;100873.81;5077187;28;19948;-69
2021/12/08 01:32:56;;;;;;;;;;;;;;;22.87;2.37;100883.66;5076914;28;19916;-69
2021/12/08 01:35:22;;;;;;;;;;;;;;;22.85;2.38;100879.53;5077052;28;19917;-69
2021/12/08 01:37:47;;;;;;;;;;;;;;;22.87;2.25;100885.56;5076666;28;20367;-68
2021/12/08 01:40:12;;;;;;;;;;;;;;;22.87;2.36;100880.94;5058879;28;19924;-69
2021/12/08 01:42:44;;;;;;;;;;;;;;;22.85;2.38;100872.19;5076871;28;19916;-69
2021/12/08 01:47:53;;;;;;;;;;;;;;;22.88;2.31;100895.38;5076352;28;20290;-68
2021/12/08 01:50:19;;;;;;;;;;;;;;;22.85;2.27;100894.00;5076516;28;19917;-68
2021/12/08 01:52:44;;;;;;;;;;;;;;;22.87;2.37;100896.47;5076573;28;20371;-69
2021/12/08 01:55:10;;;;;;;;;;;;;;;22.88;2.18;100889.91;5076383;28;19916;-69
2021/12/08 01:57:36;;;;;;;;;;;;;;;22.88;2.21;100888.00;5076295;28;19921;-69
2021/12/08 02:00:01;;;;;;;;;;;;;;;22.86;2.22;100897.53;5076524;28;19923;-69
2021/12/08 02:02:26;;;;;;;;;;;;;;;22.85;2.22;100890.44;5076432;28;20356;-69
2021/12/08 02:04:51;;;;;;;;;;;;;;;22.83;2.16;100889.88;5076195;28;20385;-69
2021/12/08 02:07:16;;;;;;;;;;;;;;;22.84;2.35;100891.53;5076101;28;19924;-69
2021/12/08 02:09:43;;;;;;;;;;;;;;;22.84;2.38;100888.81;5076305;28;19917;-69
2021/12/08 02:12:09;;;;;;;;;;;;;;;22.86;2.36;100889.38;5076347;28;20015;-69
2021/12/08 02:14:34;;;;;;;;;;;;;;;22.86;2.21;100895.63;5076188;28;19952;-69
2021/12/08 02:17:00;;;;;;;;;;;;;;;22.84;2.29;100892.34;5076090;28;19917;-69
2021/12/08 02:19:25;;;;;;;;;;;;;;;22.85;2.40;100898.59;5075967;28;19982;-69
2021/12/08 02:21:53;;;;;;;;;;;;;;;22.85;2.34;100898.59;5075396;28;19961;-69
2021/12/08 02:24:19;;;;;;;;;;;;;;;22.86;2.35;100889.38;5075650;28;19917;-69
2021/12/08 02:26:44;;;;;;;;;;;;;;;22.87;2.29;100891.84;5075906;28;20370;-69
2021/12/08 02:29:13;;;;;;;;;;;;;;;22.88;2.35;100900.81;5075556;28;19966;-69
2021/12/08 02:31:56;;;;;;;;;;;;;;;22.89;2.30;100899.75;5075569;28;19920;-69
2021/12/08 02:48:01;;;;;;;;;;;;;;;22.84;2.22;100886.91;5075593;28;19963;-69
2021/12/08 02:50:33;;;;;;;;;;;;;;;22.84;2.16;100886.06;5075575;28;20018;-69
2021/12/08 02:52:58;;;;;;;;;;;;;;;22.85;2.11;100884.97;5075586;28;19916;-69
2021/12/08 02:55:23;;;;;;;;;;;;;;;22.87;1.83;100888.28;5057344;28;20212;-69
2021/12/08 02:57:48;;;;;;;;;;;;;;;22.85;2.12;100891.28;5075121;28;19920;-69
2021/12/08 03:00:15;;;;;;;;;;;;;;;22.86;2.10;100884.72;5075290;28;19917;-69
2021/12/08 03:02:40;;;;;;;;;;;;;;;22.87;2.16;100891.03;5074076;28;19927;-69
2021/12/08 03:05:06;;;;;;;;;;;;;;;22.83;2.11;100895.31;5075166;28;20305;-68
2021/12/08 03:07:31;;;;;;;;;;;;;;;22.88;1.99;100893.47;5075273;28;19925;-70
2021/12/08 03:10:04;;;;;;;;;;;;;;;22.86;1.99;100894.81;5075253;28;20290;-70
2021/12/08 03:12:29;;;;;;;;;;;;;;;22.87;2.02;100896.47;5074974;28;19927;-70
2021/12/08 03:14:54;;;;;;;;;;;;;;;22.86;1.93;100892.91;5075017;28;20014;-69
2021/12/08 03:17:20;;;;;;;;;;;;;;;22.82;1.98;100910.84;5074660;28;20327;-69
2021/12/08 03:19:46;;;;;;;;;;;;;;;22.79;2.08;100903.19;5074431;28;19921;-70
2021/12/08 03:22:11;;;;;;;;;;;;;;;22.84;1.96;100896.97;5077722;28;20382;-68
2021/12/08 03:24:39;;;;;;;;;;;;;;;22.85;1.93;100898.59;5094830;28;19924;-69
2021/12/08 03:27:14;;;;;;;;;;;;;;;22.83;2.02;100900.78;5094687;28;20028;-69
2021/12/08 03:29:54;;;;;;;;;;;;;;;22.86;1.89;100894.81;5095066;28;20010;-69
2021/12/08 03:32:28;;;;;;;;;;;;;;;22.86;2.04;100901.06;5094961;28;19916;-69
2021/12/08 03:34:53;;;;;;;;;;;;;;;22.84;1.98;100913.31;5094772;28;19916;-69
2021/12/08 03:37:42;;;;;;;;;;;;;;;22.82;2.09;100915.50;5094608;28;19923;-69
2021/12/08 03:40:09;;;;;;;;;;;;;;;22.82;1.95;100916.31;5083323;28;19916;-68
2021/12/08 03:42:37;;;;;;;;;;;;;;;22.84;2.02;100910.59;5094507;28;19985;-69
2021/12/08 03:45:06;;;;;;;;;;;;;;;22.82;2.06;100910.84;5094810;28;19923;-69
2021/12/08 03:47:31;;;;;;;;;;;;;;;22.82;2.09;100910.03;5094571;28;20008;-69
2021/12/08 03:49:57;;;;;;;;;;;;;;;22.80;2.06;100912.19;5094817;28;20265;-69
2021/12/08 03:52:23;;;;;;;;;;;;;;;22.81;2.06;100905.66;5094626;28;20327;-68
2021/12/08 03:54:48;;;;;;;;;;;;;;;22.81;1.99;100909.19;5094546;28;19926;-69
2021/12/08 03:57:13;;;;;;;;;;;;;;;22.73;2.22;100912.38;5094994;28;20281;-69
2021/12/08 03:59:38;;;;;;;;;;;;;;;22.83;2.15;100923.38;5094596;28;19917;-69
2021/12/08 04:02:04;;;;;;;;;;;;;;;22.89;2.10;100929.72;5094375;28;19916;-69
2021/12/08 04:04:30;;;;;;;;;;;;;;;22.95;2.07;100938.78;5094711;28;19920;-70
2021/12/08 04:06:57;;;;;;;;;;;;;;;22.97;2.22;100940.16;5094799;28;19916;-69
2021/12/08 04:09:39;;;;;;;;;;;;;;;23.04;2.15;100935.34;5094315;28;19916;-69
2021/12/08 04:12:05;;;;;;;;;;;;;;;23.05;2.02;100950.63;5094453;28;19923;-68
2021/12/08 04:14:31;;;;;;;;;;;;;;;23.14;2.17;100950.16;5095163;28;19916;-68
2021/12/08 04:17:07;;;;;;;;;;;;;;;23.18;2.01;100954.00;5076440;28;19916;-68
2021/12/08 04:19:32;;;;;;;;;;;;;;;23.15;1.97;100968.19;5094974;28;19916;-69
2021/12/08 04:22:00;;;;;;;;;;;;;;;23.16;2.24;100969.81;5094841;28;20468;-68
2021/12/08 04:24:27;;;;;;;;;;;;;;;23.21;2.01;100964.41;5093997;28;21400;-68
2021/12/08 04:26:55;;;;;;;;;;;;;;;23.25;2.18;100963.66;5094910;28;20010;-68
2021/12/08 04:29:21;;;;;;;;;;;;;;;23.26;1.88;100964.47;5095406;28;19923;-69
2021/12/08 04:31:47;;;;;;;;;;;;;;;23.15;2.03;100968.19;5094697;28;20019;-69
2021/12/08 04:34:16;;;;;;;;;;;;;;;23.31;2.01;100978.16;5094293;28;19955;-69
2021/12/08 04:36:44;;;;;;;;;;;;;;;23.27;2.03;100977.03;5094150;28;19923;-70
2021/12/08 04:39:14;;;;;;;;;;;;;;;23.35;1.97;100973.84;5094208;28;19920;-69
2021/12/08 04:41:45;;;;;;;;;;;;;;;23.41;2.17;100967.31;5095396;28;19916;-69
2021/12/08 04:47:19;;;;;;;;;;;;;;;23.48;2.00;100971.75;5095452;28;19916;-70
2021/12/08 05:08:17;;;;;;;;;;;;;;;23.64;2.12;100976.25;5048962;28;19924;-68
2021/12/08 05:10:42;;;;;;;;;;;;;;;23.65;2.12;100968.91;5046550;28;19941;-68
2021/12/08 05:13:08;;;;;;;;;;;;;;;23.62;2.10;100973.78;5048130;28;19925;-68
2021/12/08 05:15:34;;;;;;;;;;;;;;;23.65;1.92;100971.63;5048436;28;20033;-68
2021/12/08 05:18:06;;;;;;;;;;;;;;;23.69;2.16;100968.09;5012495;28;19924;-68
2021/12/08 05:20:33;;;;;;;;;;;;;;;23.71;1.99;100973.28;5034958;28;19921;-68
2021/12/08 05:23:05;;;;;;;;;;;;;;;23.72;1.89;100978.50;5024441;28;19925;-68
2021/12/08 05:25:31;;;;;;;;;;;;;;;23.73;2.12;100985.59;5014901;28;19917;-67
2021/12/08 05:27:57;;;;;;;;;;;;;;;23.71;1.95;100979.56;5015889;28;20348;-68
2021/12/08 05:30:25;;;;;;;;;;;;;;;23.67;1.96;100994.81;5024889;28;19944;-69
2021/12/08 05:32:51;;;;;;;;;;;;;;;23.75;2.16;100996.25;5057332;28;19917;-69
2021/12/08 05:35:17;;;;;;;;;;;;;;;23.73;2.09;100999.25;5056851;28;19917;-69
2021/12/08 05:37:43;;;;;;;;;;;;;;;23.73;1.96;101004.72;5057830;28;19937;-69
2021/12/08 05:40:09;;;;;;;;;;;;;;;23.80;2.12;101013.50;5056613;28;20062;-69
2021/12/08 05:42:35;;;;;;;;;;;;;;;23.85;2.09;101011.91;5056689;28;19916;-69
2021/12/08 05:45:02;;;;;;;;;;;;;;;23.88;2.13;101019.59;5056714;28;19917;-69
2021/12/08 05:47:28;;;;;;;;;;;;;;;23.88;2.03;101038.69;5056450;28;19917;-69
2021/12/08 05:49:55;;;;;;;;;;;;;;;23.91;1.96;101052.63;5056277;28;19963;-69
2021/12/08 05:52:21;;;;;;;;;;;;;;;23.88;1.94;101046.88;5056881;28;20379;-69
2021/12/08 05:54:46;;;;;;;;;;;;;;;23.89;1.86;101054.81;5056505;28;19930;-69
2021/12/08 05:57:13;;;;;;;;;;;;;;;23.82;1.89;101054.22;5056465;28;19917;-69
2021/12/08 05:59:38;;;;;;;;;;;;;;;23.89;2.00;101048.53;5038399;28;19917;-70
2021/12/08 06:02:33;;;;;;;;;;;;;;;23.88;2.06;101057.78;5056537;28;20258;-69
2021/12/08 06:04:58;;;;;;;;;;;;;;;23.97;1.92;101067.13;4995056;28;19968;-70
2021/12/08 06:07:24;;;;;;;;;;;;;;;23.95;2.02;101063.84;4995068;28;19918;-69
2021/12/08 06:09:50;;;;;;;;;;;;;;;23.98;2.07;101057.88;4995681;28;19924;-69
2021/12/08 06:12:15;;;;;;;;;;;;;;;23.99;2.08;101062.25;4996414;28;20021;-69
2021/12/08 06:14:40;;;;;;;;;;;;;;;24.02;2.11;101063.63;4998445;28;19922;-69
2021/12/08 06:17:07;;;;;;;;;;;;;;;24.02;2.09;101069.91;4996704;28;20423;-70
2021/12/08 06:19:33;;;;;;;;;;;;;;;24.03;2.00;101065.28;4995486;28;19925;-69
2021/12/08 06:21:58;;;;;;;;;;;;;;;24.02;2.00;101064.44;4994747;28;19922;-69
2021/12/08 06:24:23;;;;;;;;;;;;;;;24.05;2.00;101061.19;5013716;28;20375;-70
2021/12/08 06:26:49;;;;;;;;;;;;;;;24.09;2.08;101054.13;5014122;28;20321;-69
2021/12/08 06:29:15;;;;;;;;;;;;;;;24.10;1.98;101050.31;5014332;28;20316;-69
2021/12/08 06:31:40;;;;;;;;;;;;;;;24.14;2.13;101050.63;5013949;28;19936;-69
2021/12/08 06:34:06;;;;;;;;;;;;;;;24.11;2.05;101051.97;5014432;28;19917;-70
2021/12/08 06:36:33;;;;;;;;;;;;;;;24.14;1.95;101062.34;5013936;28;20089;-69
2021/12/08 06:38:58;;;;;;;;;;;;;;;24.15;2.02;101064.00;5014426;28;20382;-70
2021/12/08 06:41:23;;;;;;;;;;;;;;;24.15;2.05;101055.81;5046603;28;19999;-68
2021/12/08 06:43:50;;;;;;;;;;;;;;;24.18;1.94;101052.56;5076023;28;19966;-71
2021/12/08 06:46:15;;;;;;;;;;;;;;;24.17;2.13;101053.63;5075419;28;19970;-70
2021/12/08 06:48:42;;;;;;;;;;;;;;;24.15;1.93;101055.00;5075950;28;19920;-70
2021/12/08 06:51:09;;;;;;;;;;;;;;;24.19;1.91;101056.94;5058415;28;19920;-69
2021/12/08 06:53:34;;;;;;;;;;;;;;;24.18;2.13;101068.94;5075568;28;19924;-70
2021/12/08 06:56:01;;;;;;;;;;;;;;;24.10;2.11;101066.69;5076015;28;20012;-71
2021/12/08 06:58:27;;;;;;;;;;;;;;;24.24;2.43;101071.72;5075843;28;20006;-71
2021/12/08 07:01:14;;;;;;;;;;;;;;;24.17;2.17;101074.69;5076082;28;19917;-71
2021/12/08 07:04:10;;;;;;;;;;;;;;;24.24;1.88;101078.00;5075813;28;19939;-71
2021/12/08 07:06:59;;;;;;;;;;;;;;;24.23;2.07;101083.72;5075480;28;19955;-70
2021/12/08 07:09:27;;;;;;;;;;;;;;;24.14;2.14;101081.47;5060894;28;20394;-71
2021/12/08 07:11:55;;;;;;;;;;;;;;;24.30;2.00;101087.03;5075858;28;19916;-71
2021/12/08 07:14:21;;;;;;;;;;;;;;;24.25;2.32;101092.47;5075509;28;19916;-70
2021/12/08 07:16:47;;;;;;;;;;;;;;;24.33;2.23;101086.53;5078330;28;20309;-69
2021/12/08 07:19:22;;;;;;;;;;;;;;;24.36;2.12;101096.94;5076677;28;20367;-70
2021/12/08 07:21:47;;;;;;;;;;;;;;;24.36;2.13;101081.34;5075286;28;19921;-69
2021/12/08 07:24:14;;;;;;;;;;;;;;;24.37;2.02;101093.13;5093973;28;19927;-70
2021/12/08 07:26:40;;;;;;;;;;;;;;;24.36;1.93;101084.09;5084507;28;19916;-69
2021/12/08 07:29:09;;;;;;;;;;;;;;;24.37;1.98;101082.19;5097054;28;19932;-70
2021/12/08 07:31:36;;;;;;;;;;;;;;;24.41;1.95;101088.78;5096660;28;19962;-70
2021/12/08 07:34:03;;;;;;;;;;;;;;;24.42;2.01;101095.03;5097326;28;19920;-70
2021/12/08 07:36:30;;;;;;;;;;;;;;;24.45;1.83;101094.53;5098297;28;20011;-72
2021/12/08 07:38:55;;;;;;;;;;;;;;;24.42;1.75;101089.59;5077689;28;19915;-70
2021/12/08 07:41:31;;;;;;;;;;;;;;;24.43;1.85;101093.97;5095326;28;20342;-71
2021/12/08 07:43:57;;;;;;;;;;;;;;;24.38;1.82;101089.28;5094554;28;20018;-70
2021/12/08 07:46:27;;;;;;;;;;;;;;;24.45;1.83;101106.28;5094504;28;20012;-70
2021/12/08 07:48:55;;;;;;;;;;;;;;;24.48;1.99;101104.94;5093986;28;19916;-70
2021/12/08 07:51:27;;;;;;;;;;;;;;;24.50;1.88;101109.03;5094691;28;20015;-70
2021/12/08 07:53:53;;;;;;;;;;;;;;;24.50;1.93;101113.69;5094912;28;19916;-71
2021/12/08 07:56:18;;;;;;;;;;;;;;;24.48;1.92;101113.13;5094378;28;19916;-71
2021/12/08 07:58:44;;;;;;;;;;;;;;;24.49;1.81;101107.41;5094840;28;19920;-70
2021/12/08 08:01:11;;;;;;;;;;;;;;;24.49;2.05;101121.06;5094413;28;20421;-70
2021/12/08 08:03:36;;;;;;;;;;;;;;;24.48;2.17;101110.41;5094756;28;19920;-70
2021/12/08 08:06:05;;;;;;;;;;;;;;;24.47;2.08;101115.00;5076300;28;19957;-70
2021/12/08 08:08:33;;;;;;;;;;;;;;;24.48;2.19;101111.22;5094555;28;20016;-70
2021/12/08 08:11:00;;;;;;;;;;;;;;;24.51;2.32;101113.44;5076618;28;19916;-71
2021/12/08 08:13:25;;;;;;;;;;;;;;;24.53;2.29;101113.16;5094487;28;20008;-71
2021/12/08 08:15:53;;;;;;;;;;;;;;;24.57;1.98;101110.75;5094188;28;19916;-71
2021/12/08 08:18:22;;;;;;;;;;;;;;;24.55;2.08;101113.75;5076707;28;20004;-71
2021/12/08 08:20:49;;;;;;;;;;;;;;;24.57;2.32;101124.41;5093844;28;19942;-71
2021/12/08 08:23:24;;;;;;;;;;;;;;;24.55;2.17;101117.28;5085687;28;19928;-71
2021/12/08 08:25:49;;;;;;;;;;;;;;;24.57;2.05;101124.41;5055765;28;19917;-73
2021/12/08 08:28:16;;;;;;;;;;;;;;;24.61;2.29;101122.78;5074710;28;20366;-71
2021/12/08 08:31:02;;;;;;;;;;;;;;;24.61;2.17;101120.91;5074737;28;19940;-71
2021/12/08 08:33:29;;;;;;;;;;;;;;;24.67;1.96;101124.47;5012149;28;19922;-71
2021/12/08 08:35:55;;;;;;;;;;;;;;;24.63;2.05;101106.94;5012614;28;19924;-71
2021/12/08 08:38:22;;;;;;;;;;;;;;;24.66;2.31;101117.34;5012238;28;20454;-71
2021/12/08 08:40:52;;;;;;;;;;;;;;;24.65;2.18;101110.25;5014011;28;19949;-74
2021/12/08 08:43:17;;;;;;;;;;;;;;;24.65;2.10;101116.53;5014815;28;20265;-70
2021/12/08 08:45:42;;;;;;;;;;;;;;;24.66;2.20;101109.97;5014004;28;19939;-71
2021/12/08 08:48:15;;;;;;;;;;;;;;;24.66;2.10;101112.72;5011934;28;20412;-70
2021/12/08 08:50:42;;;;;;;;;;;;;;;24.71;2.19;101109.19;5015014;28;19918;-71
2021/12/08 08:53:07;;;;;;;;;;;;;;;24.68;2.14;101109.72;5012421;28;19918;-70
2021/12/08 08:55:34;;;;;;;;;;;;;;;24.68;2.19;101104.25;5012706;28;19940;-70
2021/12/08 08:58:00;;;;;;;;;;;;;;;24.71;1.97;101109.19;5011930;28;19941;-72
2021/12/08 09:00:37;;;;;;;;;;;;;;;24.70;2.26;101126.69;5016106;28;19921;-70
2021/12/08 09:03:06;;;;;;;;;;;;;;;24.68;1.97;101128.84;5017848;28;19917;-70
2021/12/08 09:05:33;;;;;;;;;;;;;;;24.71;2.10;101123.66;5017722;28;20479;-70
2021/12/08 09:07:59;;;;;;;;;;;;;;;24.73;2.31;101137.06;5018805;28;19918;-70
2021/12/08 09:10:30;;;;;;;;;;;;;;;24.71;1.97;101129.13;5045489;28;19916;-70
2021/12/08 09:12:56;;;;;;;;;;;;;;;24.74;2.06;101136.00;5061924;28;19961;-70
2021/12/08 09:15:24;;;;;;;;;;;;;;;24.77;2.09;101123.69;5080201;28;19987;-71
2021/12/08 09:17:57;;;;;;;;;;;;;;;24.78;2.00;101131.63;5078067;28;19924;-70
2021/12/08 09:20:30;;;;;;;;;;;;;;;24.78;2.30;101126.16;5078290;28;19943;-71
2021/12/08 09:22:59;;;;;;;;;;;;;;;24.78;2.23;101136.28;5067439;28;20317;-70
2021/12/08 09:25:30;;;;;;;;;;;;;;;24.75;2.32;101129.47;5100598;28;19970;-70
2021/12/08 09:28:02;;;;;;;;;;;;;;;24.78;2.23;101137.09;5099746;28;20350;-70
2021/12/08 09:30:47;;;;;;;;;;;;;;;24.78;2.13;101141.75;5100612;28;19916;-70
2021/12/08 09:33:17;;;;;;;;;;;;;;;24.79;2.26;101137.94;5106329;28;19916;-72
2021/12/08 09:35:42;;;;;;;;;;;;;;;24.78;2.18;101137.09;5086852;28;20407;-71
2021/12/08 09:38:13;;;;;;;;;;;;;;;24.78;2.00;101131.63;5097778;28;19916;-69
2021/12/08 09:40:42;;;;;;;;;;;;;;;24.83;2.05;101133.59;5097128;28;19968;-70
2021/12/08 09:43:16;;;;;;;;;;;;;;;24.83;2.11;101128.94;5097270;28;20005;-70
2021/12/08 09:45:44;;;;;;;;;;;;;;;24.86;2.30;101131.16;5097416;28;19922;-70
2021/12/08 09:48:10;;;;;;;;;;;;;;;24.88;2.28;101126.22;5096783;28;19939;-70
2021/12/08 09:50:35;;;;;;;;;;;;;;;24.87;2.29;101138.25;5097024;28;20350;-70
2021/12/08 09:53:01;;;;;;;;;;;;;;;24.87;2.12;101141.00;5097160;28;19956;-69
2021/12/08 09:55:26;;;;;;;;;;;;;;;24.87;2.07;101132.81;5096759;28;19973;-69
2021/12/08 09:57:51;;;;;;;;;;;;;;;24.88;2.07;101136.34;5096318;28;19916;-69
2021/12/08 10:00:19;;;;;;;;;;;;;;;24.88;2.06;101131.69;5079154;28;19916;-69
2021/12/08 10:02:44;;;;;;;;;;;;;;;24.80;2.38;101139.56;5096444;28;19928;-70
2021/12/08 10:05:10;;;;;;;;;;;;;;;24.90;2.32;101139.63;5078854;28;19927;-70
2021/12/08 10:07:37;;;;;;;;;;;;;;;24.83;2.28;101133.59;5096992;28;20294;-71
2021/12/08 10:10:02;;;;;;;;;;;;;;;24.83;2.62;101137.13;5096052;28;19951;-71
2021/12/08 10:12:28;;;;;;;;;;;;;;;25.00;2.64;101133.41;5096797;28;19923;-71
2021/12/08 10:14:53;;;;;;;;;;;;;;;24.92;2.41;101121.03;5096423;28;19924;-71
2021/12/08 10:17:19;;;;;;;;;;;;;;;24.95;2.44;101120.53;5097481;28;19924;-72
2021/12/08 10:19:44;;;;;;;;;;;;;;;24.91;2.51;101128.44;5096159;28;19999;-71
2021/12/08 10:22:16;;;;;;;;;;;;;;;24.84;2.68;101129.78;5096134;28;20003;-70
2021/12/08 10:24:42;;;;;;;;;;;;;;;24.90;2.50;101139.63;5077729;28;19928;-71
2021/12/08 10:27:08;;;;;;;;;;;;;;;24.88;2.61;101134.44;5057765;28;19916;-71
2021/12/08 10:29:33;;;;;;;;;;;;;;;24.84;2.56;101141.53;5076036;28;19923;-70
2021/12/08 10:32:00;;;;;;;;;;;;;;;24.87;2.52;101146.47;5075231;28;19917;-70
2021/12/08 10:34:30;;;;;;;;;;;;;;;24.89;2.42;101154.41;5075733;28;20003;-69
2021/12/08 10:36:57;;;;;;;;;;;;;;;24.88;2.63;101152.75;5075324;28;19920;-70
2021/12/08 10:39:26;;;;;;;;;;;;;;;24.87;2.75;101162.88;5075496;28;19916;-70
2021/12/08 10:41:52;;;;;;;;;;;;;;;24.88;2.82;101160.94;5057634;28;19990;-70
2021/12/08 10:44:36;;;;;;;;;;;;;;;24.92;2.86;101168.38;5076023;28;19916;-71
2021/12/08 10:47:02;;;;;;;;;;;;;;;24.86;2.89;101163.13;5075387;28;19916;-72
2021/12/08 10:54:37;;;;;;;;;;;;;;;24.92;2.84;101162.91;5076531;28;19931;-71
2021/12/08 10:57:03;;;;;;;;;;;;;;;24.91;2.77;101172.19;5076098;28;19920;-70
2021/12/08 10:59:48;;;;;;;;;;;;;;;24.90;2.82;101173.25;5076445;28;20347;-70
2021/12/08 11:02:32;;;;;;;;;;;;;;;24.94;2.87;101173.56;5075055;28;20002;-71
2021/12/08 11:04:58;;;;;;;;;;;;;;;24.85;3.13;101180.59;5075625;28;19923;-70
2021/12/08 11:07:23;;;;;;;;;;;;;;;24.91;3.02;101174.91;5075042;28;20255;-72
2021/12/08 11:09:48;;;;;;;;;;;;;;;24.93;2.92;101174.66;5056790;28;19921;-71
2021/12/08 11:12:13;;;;;;;;;;;;;;;24.97;3.25;101181.22;5057056;28;19960;-72
2021/12/08 11:14:42;;;;;;;;;;;;;;;24.98;2.96;101184.81;5057057;28;20370;-72
2021/12/08 11:17:27;;;;;;;;;;;;;;;24.98;2.81;101174.69;5057264;28;20267;-71
2021/12/08 11:20:11;;;;;;;;;;;;;;;24.97;2.98;101183.16;5076025;28;19943;-71
2021/12/08 11:22:36;;;;;;;;;;;;;;;24.99;2.96;101186.44;5074466;28;19982;-71
2021/12/08 11:25:02;;;;;;;;;;;;;;;24.96;2.95;101189.69;5094503;28;19916;-70
2021/12/08 11:27:28;;;;;;;;;;;;;;;24.98;3.14;101182.06;5076883;28;19968;-70
2021/12/08 11:29:54;;;;;;;;;;;;;;;25.02;3.00;101185.91;5095167;28;19974;-71
2021/12/08 11:32:22;;;;;;;;;;;;;;;25.04;3.13;101183.72;5094617;28;20350;-71
2021/12/08 11:34:47;;;;;;;;;;;;;;;24.93;3.41;101189.13;5095282;28;19952;-71
2021/12/08 11:37:14;;;;;;;;;;;;;;;25.00;3.43;101182.63;5076232;28;20307;-70
2021/12/08 11:39:43;;;;;;;;;;;;;;;25.02;3.04;101177.69;5095210;28;19923;-71
2021/12/08 11:42:16;;;;;;;;;;;;;;;25.01;3.19;101189.72;5095308;28;19916;-71
2021/12/08 11:45:01;;;;;;;;;;;;;;;25.02;3.43;101192.19;5094622;28;20002;-70
2021/12/08 11:47:32;;;;;;;;;;;;;;;25.02;3.12;101183.19;5093401;28;19920;-71
2021/12/08 11:49:59;;;;;;;;;;;;;;;25.03;3.36;101184.84;5094443;28;19995;-70
2021/12/08 11:52:29;;;;;;;;;;;;;;;25.04;3.50;101191.94;5094068;28;19916;-70
2021/12/08 11:54:59;;;;;;;;;;;;;;;25.04;3.09;101186.47;5093984;28;20365;-70
2021/12/08 11:57:32;;;;;;;;;;;;;;;25.04;3.49;101192.78;5094573;28;19966;-71
2021/12/08 12:00:06;;;;;;;;;;;;;;;25.06;3.41;101195.22;5076496;28;19952;-72
2021/12/08 12:02:37;;;;;;;;;;;;;;;25.07;3.44;101205.88;5098026;28;20023;-71
2021/12/08 12:05:06;;;;;;;;;;;;;;;25.08;3.37;101202.09;5043587;28;19939;-71
2021/12/08 12:07:31;;;;;;;;;;;;;;;25.10;3.54;101208.09;5094080;28;20411;-72
2021/12/08 12:09:57;;;;;;;;;;;;;;;24.92;3.48;101197.59;5076735;28;20040;-71
2021/12/08 12:12:22;;;;;;;;;;;;;;;25.04;3.62;101208.34;5094420;28;20365;-72
2021/12/08 12:14:47;;;;;;;;;;;;;;;25.04;3.25;101214.66;5095641;28;19964;-71
2021/12/08 12:17:13;;;;;;;;;;;;;;;25.03;3.44;101209.44;5096403;28;20031;-72
2021/12/08 12:19:41;;;;;;;;;;;;;;;25.04;3.46;101217.38;5093906;28;19916;-71
2021/12/08 12:22:27;;;;;;;;;;;;;;;25.03;3.37;101214.91;5071953;28;19924;-70
2021/12/08 12:25:06;;;;;;;;;;;;;;;25.02;3.25;101218.72;5054773;28;19921;-70
2021/12/08 12:27:50;;;;;;;;;;;;;;;25.04;3.38;101225.59;5054217;28;19917;-69
2021/12/08 12:30:19;;;;;;;;;;;;;;;25.02;3.40;101227.75;5054249;28;20395;-70
2021/12/08 12:32:48;;;;;;;;;;;;;;;24.91;3.58;101226.03;5053169;28;19917;-70
2021/12/08 12:35:17;;;;;;;;;;;;;;;24.83;3.35;101230.06;5054402;28;19917;-71
2021/12/08 12:37:42;;;;;;;;;;;;;;;25.02;3.36;101237.88;5054168;28;20394;-70
2021/12/08 12:40:09;;;;;;;;;;;;;;;25.05;3.27;101229.13;5054042;28;19916;-70
2021/12/08 12:42:44;;;;;;;;;;;;;;;25.07;3.24;101235.16;5054121;28;20012;-70
2021/12/08 12:45:12;;;;;;;;;;;;;;;24.98;3.19;101234.03;5054516;28;20319;-71
2021/12/08 12:47:38;;;;;;;;;;;;;;;25.00;3.26;101231.84;5054180;28;20432;-71
2021/12/08 12:50:09;;;;;;;;;;;;;;;24.99;3.04;101243.84;5054153;28;19917;-71
2021/12/08 12:52:38;;;;;;;;;;;;;;;25.02;2.80;101241.41;5053787;28;20020;-71
2021/12/08 12:55:10;;;;;;;;;;;;;;;25.06;3.05;101252.66;5054272;28;19916;-70
2021/12/08 12:57:54;;;;;;;;;;;;;;;25.09;3.11;101252.13;5053786;28;20423;-70
2021/12/08 13:00:23;;;;;;;;;;;;;;;25.10;2.95;101253.78;5053730;28;20012;-70
2021/12/08 13:02:48;;;;;;;;;;;;;;;25.14;2.99;101271.31;5053914;28;19933;-70
2021/12/08 13:05:18;;;;;;;;;;;;;;;25.12;3.02;101262.53;5052383;28;19921;-70
2021/12/08 13:07:55;;;;;;;;;;;;;;;25.12;3.23;101257.88;5053973;28;19916;-71
2021/12/08 13:10:28;;;;;;;;;;;;;;;25.14;3.02;101259.53;5054094;28;20262;-71
2021/12/08 13:12:54;;;;;;;;;;;;;;;25.16;3.05;101266.38;5054484;28;19924;-71
2021/12/08 13:15:20;;;;;;;;;;;;;;;25.11;3.13;101274.56;5052587;28;20322;-71
2021/12/08 13:18:00;;;;;;;;;;;;;;;25.10;3.11;101275.66;5053817;28;19924;-70
2021/12/08 13:20:25;;;;;;;;;;;;;;;25.16;3.10;101285.53;5052595;28;20009;-71
2021/12/08 13:22:53;;;;;;;;;;;;;;;25.13;3.01;101280.63;5074228;28;19967;-70
2021/12/08 13:25:31;;;;;;;;;;;;;;;25.14;3.08;101271.31;5093425;28;19916;-70
2021/12/08 13:28:07;;;;;;;;;;;;;;;25.15;2.94;101272.97;5093275;28;19920;-71
2021/12/08 13:30:32;;;;;;;;;;;;;;;25.00;3.05;101275.59;5093573;28;19939;-71
2021/12/08 13:33:07;;;;;;;;;;;;;;;25.10;2.98;101268.28;5093064;28;20377;-70
2021/12/08 13:35:36;;;;;;;;;;;;;;;24.98;3.14;101272.31;5092963;28;19948;-70
2021/12/08 13:38:01;;;;;;;;;;;;;;;25.10;3.08;101270.19;5093500;28;19919;-70
2021/12/08 13:40:41;;;;;;;;;;;;;;;25.10;3.21;101265.53;5076005;28;20371;-69